Fortney, Pennsylvania
Current Conditions -  °F | °C
As of 12:56 AM on Saturday 20 Dec 2014 (Local Time) from KCXY Reporting Station
Overcast Overcast  
Wind Chill: 24°   Ceiling: 4100
Heat Index: 30°   Visibility: 10mi
Dew Point: 20°   Wind: 6mph
Humidity: 66%   Direction: 280°W
Pressure: 30.22"   Gusts: NA
Location:  40.1328°N, 76.8833°W
Report Text: KCXY 200556Z AUTO 28005KT 10SM OVC041 M01/M07 A3022 RMK AO2 SLP237 T10111067 10011 21017 58003
Loading
Personal Weather Stations






























Interactive Weather Map New forecast layout! Learn more

10-Day Weather Forecast

Advertisements
Track Severe Weather on mobile